Time;durP1;ratioP1;P1;durP2;ratioP2;P2;SDS_P1;SDS_P2;PMS_P1;PMS_P2;Temp;Humidity;BMP_temperature;BMP_pressure;BME280_temperature;BME280_humidity;BME280_pressure;Samples;Min_cycle;Max_cycle;Signal;HPM_P1;HPM_P2
2021/05/20 00:01:33;;;;;;;6.72;2.17;;;;;;;8.97;67.57;100159.03;5106838;28;20024;-63
2021/05/20 00:03:58;;;;;;;7.63;2.38;;;;;;;8.94;67.56;100148.69;5106505;28;20026;-62
2021/05/20 00:06:25;;;;;;;6.22;2.13;;;;;;;8.96;67.65;100156.47;5106786;28;20024;-63
2021/05/20 00:08:50;;;;;;;7.55;1.98;;;;;;;8.99;67.66;100153.84;5106760;28;20665;-63
2021/05/20 00:11:15;;;;;;;6.00;2.45;;;;;;;8.99;67.66;100156.44;5106601;28;20032;-63
2021/05/20 00:13:41;;;;;;;5.65;2.08;;;;;;;9.01;67.90;100152.13;5106837;28;20042;-63
2021/05/20 00:16:06;;;;;;;9.10;2.17;;;;;;;9.01;67.95;100147.78;5106464;28;20085;-63
2021/05/20 00:18:32;;;;;;;6.93;2.08;;;;;;;9.09;67.67;100141.72;5106533;28;20113;-63
2021/05/20 00:20:57;;;;;;;8.10;2.30;;;;;;;9.12;67.55;100142.53;5106368;28;20028;-64
2021/05/20 00:23:23;;;;;;;8.07;2.13;;;;;;;9.12;67.40;100145.13;5106625;28;20016;-62
2021/05/20 00:25:49;;;;;;;4.82;2.28;;;;;;;9.14;67.41;100145.97;5105636;28;20020;-63
2021/05/20 00:28:14;;;;;;;8.98;2.13;;;;;;;9.20;67.26;100141.63;5106394;28;20020;-63
2021/05/20 00:30:39;;;;;;;8.10;2.30;;;;;;;9.18;67.44;100147.66;5106167;28;20368;-63
2021/05/20 00:33:05;;;;;;;8.40;2.10;;;;;;;9.15;67.55;100142.50;5106246;28;20098;-64
2021/05/20 00:35:30;;;;;;;7.90;2.50;;;;;;;9.18;67.54;100139.91;5105917;28;20036;-63
2021/05/20 00:37:55;;;;;;;8.18;2.08;;;;;;;9.21;67.59;100145.94;5106132;28;20024;-63
2021/05/20 00:40:21;;;;;;;8.57;1.80;;;;;;;9.20;67.63;100144.22;5106147;28;20095;-63
2021/05/20 00:42:47;;;;;;;4.10;1.98;;;;;;;9.21;67.53;100143.34;5121959;28;20016;-66
2021/05/20 00:45:14;;;;;;;9.48;2.13;;;;;;;9.20;67.34;100139.88;5105755;28;20065;-64
2021/05/20 00:47:39;;;;;;;5.82;2.78;;;;;;;9.20;67.10;100142.47;5105556;28;20031;-63
2021/05/20 00:50:07;;;;;;;3.33;2.00;;;;;;;9.21;66.87;100143.34;5105569;28;20020;-63
2021/05/20 00:52:33;;;;;;;9.93;2.50;;;;;;;9.19;66.83;100138.16;5105454;28;20072;-63
2021/05/20 00:55:01;;;;;;;7.50;2.00;;;;;;;9.17;67.00;100137.31;5105478;28;20032;-63
2021/05/20 00:57:27;;;;;;;4.53;2.25;;;;;;;9.14;67.03;100138.22;5105500;28;20251;-63
2021/05/20 00:59:53;;;;;;;4.75;2.30;;;;;;;9.14;67.38;100133.03;5104256;28;20024;-63
2021/05/20 01:02:20;;;;;;;4.82;2.15;;;;;;;9.14;67.45;100130.44;5105483;28;20036;-65
2021/05/20 01:04:46;;;;;;;5.80;2.28;;;;;;;9.15;67.45;100133.91;5105201;28;20044;-63
2021/05/20 01:07:11;;;;;;;4.40;2.10;;;;;;;9.11;67.63;100134.78;5105306;28;20051;-63
2021/05/20 01:09:37;;;;;;;8.13;1.88;;;;;;;9.06;67.98;100127.03;5105477;28;20484;-63
2021/05/20 01:12:06;;;;;;;4.28;2.53;;;;;;;9.05;67.77;100133.09;5105667;28;20058;-63
2021/05/20 01:14:39;;;;;;;5.65;2.35;;;;;;;9.02;68.10;100131.41;5105377;28;20047;-64
2021/05/20 01:17:06;;;;;;;7.78;2.90;;;;;;;8.99;68.48;100122.78;5105166;28;20028;-63
2021/05/20 01:19:34;;;;;;;9.35;2.30;;;;;;;8.99;68.64;100127.97;5104952;28;20043;-64
2021/05/20 01:21:59;;;;;;;4.03;2.30;;;;;;;9.04;68.64;100126.22;5105131;28;20027;-64
2021/05/20 01:24:25;;;;;;;4.63;2.10;;;;;;;9.02;68.73;100127.94;5104802;28;20028;-63
2021/05/20 01:26:50;;;;;;;6.55;2.25;;;;;;;9.03;68.98;100129.66;5105014;28;20099;-64
2021/05/20 01:29:16;;;;;;;10.68;2.30;;;;;;;9.04;69.23;100131.38;5104950;28;20034;-63
2021/05/20 01:31:41;;;;;;;6.25;2.83;;;;;;;9.03;69.38;100127.06;5104755;28;20032;-63
2021/05/20 01:34:08;;;;;;;7.80;2.53;;;;;;;9.05;69.86;100136.56;5104645;28;20024;-63
2021/05/20 01:36:34;;;;;;;7.13;2.92;;;;;;;9.02;69.77;100139.16;5104773;28;20082;-63
2021/05/20 01:39:00;;;;;;;9.80;3.17;;;;;;;9.06;70.10;100127.03;5104737;28;20415;-63
2021/05/20 01:41:27;;;;;;;6.65;2.65;;;;;;;9.06;70.12;100129.63;5104535;28;20016;-63
2021/05/20 01:43:52;;;;;;;7.28;2.60;;;;;;;9.08;70.10;100133.06;5104635;28;20085;-63
2021/05/20 01:46:18;;;;;;;6.10;2.55;;;;;;;9.10;70.13;100131.34;5104675;28;20403;-63
2021/05/20 01:48:45;;;;;;;9.68;2.83;;;;;;;9.07;70.22;100131.38;5104882;28;20024;-63
2021/05/20 01:51:16;;;;;;;8.10;3.05;;;;;;;9.09;70.22;100131.34;5104538;28;20052;-63
2021/05/20 01:53:56;;;;;;;11.20;2.50;;;;;;;9.03;70.69;100133.09;5104871;28;20020;-63
2021/05/20 01:56:24;;;;;;;10.55;3.35;;;;;;;9.02;70.86;100122.75;5104636;28;20051;-63
2021/05/20 01:58:50;;;;;;;7.82;2.58;;;;;;;9.07;70.73;100133.97;5104724;28;20039;-63
2021/05/20 02:01:15;;;;;;;5.53;2.40;;;;;;;9.07;70.71;100126.19;5104573;28;20020;-62
2021/05/20 02:03:41;;;;;;;12.43;2.92;;;;;;;9.06;70.66;100132.22;5104494;28;20371;-63
2021/05/20 02:06:07;;;;;;;7.65;2.30;;;;;;;9.08;70.40;100122.72;5104411;28;20020;-63
2021/05/20 02:08:34;;;;;;;7.53;2.75;;;;;;;9.09;70.56;100121.00;5104575;28;20024;-63
2021/05/20 02:10:59;;;;;;;10.40;2.55;;;;;;;9.00;70.35;100108.94;5120214;28;20155;-63
2021/05/20 02:13:25;;;;;;;5.82;2.20;;;;;;;9.04;70.39;100118.44;5103136;28;20466;-64
2021/05/20 02:15:51;;;;;;;9.40;3.13;;;;;;;9.03;70.24;100121.88;5104555;28;20059;-63
2021/05/20 02:18:17;;;;;;;8.23;2.70;;;;;;;9.00;70.10;100111.53;5104271;28;20019;-63
2021/05/20 02:20:44;;;;;;;8.27;2.53;;;;;;;9.10;69.93;100114.94;5119806;28;20024;-63
2021/05/20 02:23:09;;;;;;;10.02;2.20;;;;;;;9.07;69.90;100113.25;5104587;28;20028;-63
2021/05/20 02:25:34;;;;;;;7.25;2.38;;;;;;;9.08;69.91;100111.47;5102473;28;20097;-63
2021/05/20 02:28:00;;;;;;;5.95;3.00;;;;;;;9.06;70.04;100114.09;5104198;28;20051;-63
2021/05/20 02:30:26;;;;;;;9.27;2.20;;;;;;;9.06;69.95;100106.31;5104223;28;20046;-63
2021/05/20 02:32:51;;;;;;;9.80;2.85;;;;;;;9.09;69.73;100108.03;5104040;28;20027;-63
2021/05/20 02:35:17;;;;;;;7.75;2.30;;;;;;;9.08;69.84;100102.00;5103830;28;20460;-64
2021/05/20 02:37:43;;;;;;;8.90;3.47;;;;;;;9.08;69.67;100108.91;5104098;28;20035;-64
2021/05/20 02:40:10;;;;;;;6.57;2.35;;;;;;;9.04;69.82;100101.16;5104383;28;20113;-65
2021/05/20 02:42:37;;;;;;;7.10;2.30;;;;;;;9.04;69.74;100108.09;5104094;28;20028;-64
2021/05/20 02:45:08;;;;;;;4.53;2.05;;;;;;;9.06;69.81;100108.91;5104143;28;20024;-65
2021/05/20 02:47:33;;;;;;;8.40;2.75;;;;;;;9.08;69.89;100103.72;5103761;28;20028;-64
2021/05/20 02:49:59;;;;;;;8.82;2.10;;;;;;;9.06;69.91;100101.13;5103303;28;20102;-65
2021/05/20 02:52:24;;;;;;;5.03;2.13;;;;;;;9.03;70.03;100095.97;5103790;28;20107;-64
2021/05/20 02:54:49;;;;;;;11.02;2.60;;;;;;;9.00;70.24;100104.63;5103614;28;20080;-64
2021/05/20 02:57:15;;;;;;;14.05;3.22;;;;;;;9.02;70.20;100105.50;5103834;28;20016;-64
2021/05/20 02:59:40;;;;;;;8.93;2.20;;;;;;;9.00;70.27;100098.59;5103852;28;20460;-63
2021/05/20 03:02:07;;;;;;;4.85;1.90;;;;;;;9.01;70.03;100100.34;5119272;28;20057;-63
2021/05/20 03:04:34;;;;;;;9.13;2.10;;;;;;;8.99;69.89;100102.94;5103652;28;20024;-64
2021/05/20 03:07:00;;;;;;;9.52;2.15;;;;;;;8.99;69.72;100092.56;5103724;28;20476;-63
2021/05/20 03:09:25;;;;;;;10.80;2.70;;;;;;;9.01;69.69;100090.81;5103734;28;20020;-63
2021/05/20 03:11:53;;;;;;;8.82;1.98;;;;;;;9.00;69.66;100089.09;5103813;28;20054;-63
2021/05/20 03:14:18;;;;;;;7.18;2.13;;;;;;;8.99;69.77;100092.56;5103730;28;20020;-63
2021/05/20 03:16:44;;;;;;;6.45;2.28;;;;;;;8.99;69.74;100094.28;5103439;28;20065;-63
2021/05/20 03:19:09;;;;;;;5.80;1.60;;;;;;;8.96;69.82;100082.22;5103502;28;20063;-63
2021/05/20 03:21:35;;;;;;;11.02;2.95;;;;;;;9.01;69.74;100092.56;5103751;28;20024;-63
2021/05/20 03:24:00;;;;;;;5.72;1.75;;;;;;;9.01;69.79;100083.03;5103556;28;20019;-63
2021/05/20 03:26:26;;;;;;;14.18;1.92;;;;;;;9.01;69.89;100089.97;5103849;28;20369;-64
2021/05/20 03:28:51;;;;;;;4.28;1.70;;;;;;;8.98;70.08;100085.66;5103486;28;20373;-64
2021/05/20 03:31:16;;;;;;;12.88;2.60;;;;;;;9.01;69.97;100084.81;5102240;28;20024;-63
2021/05/20 03:33:43;;;;;;;6.55;3.75;;;;;;;9.02;70.02;100086.50;5103648;28;20032;-64
2021/05/20 03:36:09;;;;;;;5.22;2.17;;;;;;;9.03;69.83;100078.72;5103380;28;20032;-64
2021/05/20 03:38:35;;;;;;;4.82;1.50;;;;;;;9.06;69.79;100080.41;5103302;28;20024;-64
2021/05/20 03:41:01;;;;;;;4.13;2.20;;;;;;;9.05;69.79;100081.31;5103025;28;20119;-63
2021/05/20 03:43:31;;;;;;;11.18;2.25;;;;;;;9.09;69.83;100087.34;5103273;28;20027;-64
2021/05/20 03:45:56;;;;;;;6.50;1.75;;;;;;;9.10;69.72;100079.53;5103220;28;20051;-64
2021/05/20 03:48:22;;;;;;;7.95;2.13;;;;;;;9.12;69.76;100075.19;5103228;28;20024;-64
2021/05/20 03:50:47;;;;;;;5.10;1.77;;;;;;;9.13;70.01;100076.94;5103123;28;20020;-64
2021/05/20 03:53:13;;;;;;;6.72;2.40;;;;;;;9.13;69.96;100084.69;5103300;28;20048;-64
2021/05/20 03:55:38;;;;;;;10.63;2.10;;;;;;;9.09;70.21;100072.63;5103259;28;20112;-64
2021/05/20 03:58:03;;;;;;;6.22;2.28;;;;;;;9.06;70.35;100075.25;5102958;28;20019;-64
2021/05/20 04:00:29;;;;;;;8.68;2.17;;;;;;;9.04;70.33;100072.66;5103214;28;20114;-64
2021/05/20 04:02:54;;;;;;;8.93;1.73;;;;;;;9.09;70.50;100077.81;5106658;28;20020;-64
2021/05/20 04:05:19;;;;;;;13.15;2.33;;;;;;;9.09;70.72;100075.22;5106832;28;20016;-65
2021/05/20 04:07:45;;;;;;;23.02;2.55;;;;;;;9.10;70.78;100078.69;5106790;28;20030;-64
2021/05/20 04:10:11;;;;;;;7.97;2.08;;;;;;;9.15;70.75;100075.16;5106940;28;20052;-64
2021/05/20 04:12:36;;;;;;;4.35;1.98;;;;;;;9.22;70.62;100067.38;5106696;28;20051;-64
2021/05/20 04:15:02;;;;;;;7.50;2.70;;;;;;;9.26;70.48;100059.56;5106621;28;20326;-63
2021/05/20 04:17:27;;;;;;;9.77;2.70;;;;;;;9.35;70.37;100065.50;5106466;28;20396;-63
2021/05/20 04:19:53;;;;;;;5.97;2.72;;;;;;;9.36;70.33;100069.84;5106338;28;20028;-63
2021/05/20 04:22:18;;;;;;;6.43;2.10;;;;;;;9.29;70.55;100075.09;5106458;28;20053;-63
2021/05/20 04:24:43;;;;;;;8.85;1.92;;;;;;;9.29;70.85;100080.25;5106365;28;20083;-63
2021/05/20 04:27:09;;;;;;;8.30;2.47;;;;;;;9.31;71.06;100075.06;5106554;28;20020;-63
2021/05/20 04:29:34;;;;;;;6.47;2.25;;;;;;;9.35;71.07;100079.34;5122049;28;20487;-64
2021/05/20 04:31:59;;;;;;;8.15;2.40;;;;;;;9.40;70.73;100076.69;5106327;28;20073;-64
2021/05/20 04:34:25;;;;;;;10.43;2.22;;;;;;;9.39;70.62;100077.59;5106176;28;20020;-63
2021/05/20 04:36:50;;;;;;;10.63;2.35;;;;;;;9.45;70.52;100074.06;5106155;28;20043;-64
2021/05/20 04:39:15;;;;;;;8.25;2.42;;;;;;;9.47;70.44;100078.38;5106388;28;20088;-63
2021/05/20 04:41:42;;;;;;;6.10;1.98;;;;;;;9.45;70.47;100077.53;5106092;28;20024;-64
2021/05/20 04:44:07;;;;;;;8.30;2.45;;;;;;;9.44;70.96;100085.31;5121699;28;20031;-64
2021/05/20 04:46:33;;;;;;;8.85;2.42;;;;;;;9.50;70.49;100088.72;5105906;28;20016;-64
2021/05/20 04:48:58;;;;;;;8.70;2.25;;;;;;;9.53;70.51;100087.81;5106106;28;20020;-64
2021/05/20 04:51:23;;;;;;;13.52;2.80;;;;;;;9.58;70.33;100085.19;5105597;28;20047;-64
2021/05/20 04:53:50;;;;;;;7.82;1.98;;;;;;;9.56;70.56;100077.44;5105886;28;20028;-63
2021/05/20 04:56:22;;;;;;;7.70;2.45;;;;;;;9.63;70.31;100086.00;5105919;28;20024;-64
2021/05/20 04:58:48;;;;;;;12.00;3.28;;;;;;;9.71;70.01;100080.75;5106146;28;20048;-64
2021/05/20 05:01:13;;;;;;;6.38;1.85;;;;;;;9.74;69.58;100088.50;5121139;28;20020;-64
2021/05/20 05:03:39;;;;;;;7.55;2.38;;;;;;;9.76;69.56;100086.75;5105828;28;20064;-65
2021/05/20 05:06:04;;;;;;;10.85;2.10;;;;;;;9.83;69.46;100087.53;5121233;28;20044;-64
2021/05/20 05:08:30;;;;;;;7.88;2.33;;;;;;;9.90;69.30;100089.19;5105336;28;20035;-65
2021/05/20 05:10:55;;;;;;;8.68;2.33;;;;;;;9.98;69.41;100086.50;5105551;28;20113;-65
2021/05/20 05:13:20;;;;;;;10.13;2.55;;;;;;;10.13;69.06;100088.06;5104805;28;20032;-64
2021/05/20 05:15:46;;;;;;;7.78;2.33;;;;;;;10.15;68.69;100079.41;5104918;28;20168;-64
2021/05/20 05:18:11;;;;;;;6.15;2.17;;;;;;;10.21;68.54;100088.00;5105241;28;20035;-65
2021/05/20 05:20:36;;;;;;;7.38;2.40;;;;;;;10.26;68.16;100088.78;5105184;28;20020;-65
2021/05/20 05:23:04;;;;;;;7.50;2.72;;;;;;;10.32;67.99;100088.69;5105411;28;20070;-65
2021/05/20 05:25:29;;;;;;;8.13;2.67;;;;;;;10.39;67.45;100087.75;5105088;28;20040;-65
2021/05/20 05:27:54;;;;;;;9.73;2.25;;;;;;;10.46;66.72;100085.06;5105137;28;20035;-64
2021/05/20 05:30:20;;;;;;;9.10;1.70;;;;;;;10.43;66.78;100088.59;5105365;28;20028;-64
2021/05/20 05:32:46;;;;;;;5.68;2.03;;;;;;;10.37;66.84;100083.44;5105047;28;20039;-64
2021/05/20 05:35:11;;;;;;;10.02;2.00;;;;;;;10.38;66.74;100087.78;5104781;28;20022;-64
2021/05/20 05:37:37;;;;;;;5.03;1.45;;;;;;;10.48;66.64;100085.97;5104992;28;20135;-64
2021/05/20 05:40:04;;;;;;;4.75;1.42;;;;;;;10.57;66.19;100088.41;5104952;28;20024;-65
2021/05/20 05:42:29;;;;;;;5.05;1.42;;;;;;;10.85;66.56;100088.03;5104847;28;20436;-64
2021/05/20 05:44:54;;;;;;;4.43;1.40;;;;;;;11.26;64.84;100077.84;5120722;28;20027;-65
2021/05/20 05:47:20;;;;;;;8.45;1.95;;;;;;;11.45;63.22;100076.69;5104768;28;20035;-63
2021/05/20 05:49:48;;;;;;;10.20;2.35;;;;;;;11.48;62.42;100079.25;5104507;28;20445;-64
2021/05/20 05:52:21;;;;;;;7.13;1.88;;;;;;;11.53;62.93;100083.47;5104934;28;20044;-63
2021/05/20 05:54:47;;;;;;;7.20;1.95;;;;;;;11.70;62.34;100084.91;5104778;28;20076;-63
2021/05/20 05:57:12;;;;;;;4.90;1.60;;;;;;;11.78;61.26;100089.97;5104780;28;20239;-64
2021/05/20 05:59:38;;;;;;;9.45;2.25;;;;;;;11.73;61.12;100086.59;5104544;28;20069;-63
2021/05/20 06:02:03;;;;;;;5.68;1.98;;;;;;;11.79;61.43;100083.88;5104400;28;20575;-64
2021/05/20 06:04:30;;;;;;;9.18;1.80;;;;;;;11.85;60.81;100086.34;5103983;28;20043;-63
2021/05/20 06:06:56;;;;;;;12.63;2.15;;;;;;;11.88;61.10;100085.47;5120290;28;20020;-63
2021/05/20 06:09:21;;;;;;;12.32;2.40;;;;;;;11.95;61.13;100094.84;5104746;28;20055;-65
2021/05/20 06:11:47;;;;;;;10.50;2.85;;;;;;;11.95;60.79;100083.59;5104583;28;20069;-64
2021/05/20 06:14:12;;;;;;;5.97;1.60;;;;;;;12.15;60.39;100078.03;5104483;28;20157;-63
2021/05/20 06:16:40;;;;;;;6.35;1.92;;;;;;;12.52;61.49;100086.81;5104348;28;20035;-63
2021/05/20 06:19:06;;;;;;;6.57;1.90;;;;;;;13.00;59.65;100079.66;5104357;28;20044;-63
2021/05/20 06:21:32;;;;;;;9.45;2.17;;;;;;;13.17;58.86;100088.81;5104060;28;20040;-64
2021/05/20 06:23:57;;;;;;;10.00;2.25;;;;;;;12.95;58.03;100085.00;5103492;28;20024;-63
2021/05/20 06:26:24;;;;;;;10.07;1.90;;;;;;;12.69;58.12;100085.56;5104338;28;20031;-63
2021/05/20 06:28:49;;;;;;;9.40;1.83;;;;;;;12.45;58.51;100078.28;5104478;28;20035;-63
2021/05/20 06:31:14;;;;;;;7.45;1.92;;;;;;;12.34;58.97;100075.03;5104459;28;20024;-63
2021/05/20 06:33:40;;;;;;;12.65;2.13;;;;;;;12.80;59.91;100077.50;5104067;28;20020;-63
2021/05/20 06:36:06;;;;;;;6.93;1.90;;;;;;;13.11;57.65;100074.19;5103910;28;20028;-64
2021/05/20 06:38:31;;;;;;;8.98;2.05;;;;;;;13.12;57.55;100079.38;5104092;28;20042;-63
2021/05/20 06:40:56;;;;;;;6.97;2.33;;;;;;;12.95;56.68;100086.72;5104104;28;20024;-63
2021/05/20 06:43:22;;;;;;;9.57;1.90;;;;;;;12.68;57.25;100079.53;5104052;28;20024;-63
2021/05/20 06:45:48;;;;;;;10.18;2.65;;;;;;;12.41;57.39;100080.97;5103866;28;20058;-64
2021/05/20 06:48:16;;;;;;;9.52;1.73;;;;;;;12.14;57.96;100087.56;5103826;28;20039;-64
2021/05/20 06:50:43;;;;;;;10.50;1.88;;;;;;;11.98;58.09;100091.34;5103392;28;20464;-63
2021/05/20 06:53:08;;;;;;;9.27;1.88;;;;;;;11.85;58.75;100082.91;5102324;28;20058;-62
2021/05/20 06:55:34;;;;;;;7.35;1.98;;;;;;;11.77;58.74;100088.28;5103607;28;20024;-63
2021/05/20 07:00:40;;;;;;;8.88;1.80;;;;;;;11.95;59.13;100081.84;5103956;28;20542;-63
2021/05/20 07:03:06;;;;;;;7.53;2.03;;;;;;;12.20;58.36;100088.34;5103862;28;20023;-63
2021/05/20 07:05:32;;;;;;;6.50;1.60;;;;;;;12.32;57.56;100084.63;5103483;28;20051;-63
2021/05/20 07:07:59;;;;;;;6.38;2.10;;;;;;;12.28;57.21;100083.84;5103696;28;20032;-64
2021/05/20 07:10:25;;;;;;;11.82;1.70;;;;;;;12.16;57.34;100084.09;5103709;28;20049;-63
2021/05/20 07:12:50;;;;;;;9.63;2.38;;;;;;;12.08;57.88;100084.22;5103515;28;20042;-63
2021/05/20 07:15:16;;;;;;;5.88;1.70;;;;;;;12.20;58.26;100072.72;5119301;28;20021;-63
2021/05/20 07:17:41;;;;;;;8.40;2.28;;;;;;;12.22;57.88;100079.59;5103415;28;20038;-63
2021/05/20 07:20:08;;;;;;;7.97;1.90;;;;;;;12.20;58.17;100085.75;5103202;28;20020;-63
2021/05/20 07:22:33;;;;;;;7.43;2.17;;;;;;;12.28;58.51;100078.66;5103481;28;20488;-63
2021/05/20 07:25:04;;;;;;;8.88;1.85;;;;;;;12.45;57.89;100080.00;5103396;28;20028;-63
2021/05/20 07:27:31;;;;;;;8.93;2.60;;;;;;;12.97;58.69;100084.97;5103535;28;20028;-63
2021/05/20 07:29:57;;;;;;;9.38;2.40;;;;;;;13.42;56.84;100077.78;5103432;28;20476;-64
2021/05/20 07:32:22;;;;;;;9.80;2.28;;;;;;;13.86;56.78;100081.00;5103378;28;20039;-64
2021/05/20 07:34:47;;;;;;;13.00;2.35;;;;;;;14.56;54.48;100093.81;5103477;28;20114;-64
2021/05/20 07:37:13;;;;;;;11.07;2.40;;;;;;;14.95;53.81;100090.03;5107510;28;20062;-63
2021/05/20 07:39:39;;;;;;;10.00;2.63;;;;;;;14.89;52.32;100082.38;5107605;28;20057;-64
2021/05/20 07:42:05;;;;;;;8.52;2.78;;;;;;;14.71;52.23;100091.66;5107144;28;20107;-63
2021/05/20 07:44:31;;;;;;;13.23;2.15;;;;;;;14.36;52.77;100087.41;5107438;28;20035;-64
2021/05/20 07:46:57;;;;;;;10.13;2.55;;;;;;;14.12;53.58;100097.69;5107345;28;20077;-63
2021/05/20 07:49:25;;;;;;;13.63;3.15;;;;;;;13.96;53.15;100096.41;5122944;28;20020;-63
2021/05/20 07:51:50;;;;;;;6.93;1.92;;;;;;;13.78;54.53;100090.78;5106969;28;20066;-64
2021/05/20 07:54:16;;;;;;;11.00;2.72;;;;;;;13.93;54.10;100088.66;5107172;28;20016;-64
2021/05/20 07:56:43;;;;;;;11.57;2.55;;;;;;;13.86;53.97;100088.84;5107071;28;20261;-64
2021/05/20 07:59:08;;;;;;;8.23;2.30;;;;;;;13.83;54.28;100096.75;5107192;28;20039;-64
2021/05/20 08:01:35;;;;;;;9.80;2.53;;;;;;;13.66;54.33;100091.97;5107108;28;20477;-64
2021/05/20 08:04:12;;;;;;;14.38;2.72;;;;;;;13.46;54.53;100079.41;5107203;28;20027;-64
2021/05/20 08:09:14;;;;;;;11.20;2.15;;;;;;;12.94;56.00;100085.03;5107074;28;20016;-64
2021/05/20 08:11:40;;;;;;;14.73;2.38;;;;;;;12.89;56.29;100090.34;5107102;28;20019;-65
2021/05/20 08:14:06;;;;;;;9.80;2.90;;;;;;;12.83;56.46;100085.25;5107012;28;20024;-64
2021/05/20 08:16:31;;;;;;;10.13;2.60;;;;;;;12.70;56.84;100088.13;5122357;28;20426;-64
2021/05/20 08:18:59;;;;;;;7.55;2.20;;;;;;;12.61;57.32;100091.81;5106926;28;20083;-63
2021/05/20 08:21:24;;;;;;;12.05;2.70;;;;;;;12.46;57.64;100089.56;5106455;28;20024;-62
2021/05/20 08:23:49;;;;;;;12.15;2.47;;;;;;;12.39;57.47;100097.50;5106475;28;20105;-64
2021/05/20 08:26:15;;;;;;;9.73;2.33;;;;;;;12.31;57.66;100094.19;5106784;28;20056;-63
2021/05/20 08:28:40;;;;;;;12.02;2.30;;;;;;;12.29;57.91;100101.16;5106539;28;20023;-64
2021/05/20 08:31:06;;;;;;;12.57;2.88;;;;;;;12.34;58.35;100104.53;5106514;28;20460;-63
2021/05/20 08:33:31;;;;;;;11.30;2.38;;;;;;;12.43;58.28;100106.09;5106304;28;20020;-63
2021/05/20 08:35:57;;;;;;;14.43;3.42;;;;;;;12.49;58.30;100105.13;5106106;28;20027;-63
2021/05/20 08:38:22;;;;;;;10.77;2.55;;;;;;;12.61;58.15;100103.97;5106314;28;20024;-63
2021/05/20 08:40:48;;;;;;;11.98;2.75;;;;;;;12.58;58.05;100102.31;5106291;28;20034;-63
2021/05/20 08:43:13;;;;;;;18.25;2.58;;;;;;;12.47;58.27;100101.69;5106451;28;20090;-63
2021/05/20 08:45:39;;;;;;;13.18;2.40;;;;;;;12.35;58.57;100106.25;5122013;28;20028;-63
2021/05/20 08:48:06;;;;;;;8.73;2.67;;;;;;;12.16;59.00;100112.72;5105370;28;20042;-63
2021/05/20 08:50:32;;;;;;;10.07;3.03;;;;;;;11.98;59.86;100112.16;5106029;28;20024;-64
2021/05/20 08:52:58;;;;;;;10.55;2.88;;;;;;;11.97;60.48;100105.22;5106106;28;20079;-63
2021/05/20 08:55:32;;;;;;;9.77;2.70;;;;;;;12.16;60.17;100110.13;5106202;28;20056;-63
2021/05/20 08:57:59;;;;;;;11.77;2.35;;;;;;;12.16;59.85;100105.75;5105925;28;20059;-64
2021/05/20 09:00:26;;;;;;;14.52;2.92;;;;;;;12.11;60.22;100108.44;5105972;28;20099;-62
2021/05/20 09:02:52;;;;;;;10.82;2.60;;;;;;;12.09;60.28;100099.81;5105808;28;20024;-63
2021/05/20 09:05:21;;;;;;;10.98;2.42;;;;;;;12.04;60.36;100109.44;5104113;28;20028;-63
2021/05/20 09:07:53;;;;;;;12.48;2.88;;;;;;;11.99;60.33;100100.84;5105560;28;20046;-63
2021/05/20 09:10:20;;;;;;;11.80;2.35;;;;;;;11.88;60.82;100101.94;5105658;28;20422;-63
2021/05/20 09:12:47;;;;;;;10.45;1.80;;;;;;;11.84;61.05;100102.84;5105554;28;20547;-63
2021/05/20 09:15:17;;;;;;;10.98;2.28;;;;;;;11.86;60.81;100103.69;5104506;28;20020;-63
2021/05/20 09:17:44;;;;;;;15.43;3.72;;;;;;;11.81;60.87;100108.13;5105519;28;20028;-63
2021/05/20 09:20:10;;;;;;;7.75;3.13;;;;;;;11.81;60.71;100115.06;5105307;28;20232;-63
2021/05/20 09:22:36;;;;;;;8.10;2.22;;;;;;;11.69;61.13;100110.94;5105613;28;20091;-63
2021/05/20 09:25:03;;;;;;;10.85;2.60;;;;;;;11.56;61.58;100111.16;5105596;28;20096;-63
2021/05/20 09:27:45;;;;;;;13.23;2.78;;;;;;;11.43;61.90;100112.25;5105280;28;20012;-63
2021/05/20 09:30:21;;;;;;;21.48;4.68;;;;;;;11.32;62.68;100117.63;5105299;28;20028;-63
2021/05/20 09:32:47;;;;;;;15.52;3.15;;;;;;;11.40;62.86;100118.38;5105331;28;20065;-63
2021/05/20 09:35:14;;;;;;;9.55;2.92;;;;;;;11.55;62.71;100114.63;5105078;28;20027;-64
2021/05/20 09:37:47;;;;;;;12.05;2.80;;;;;;;11.77;62.07;100114.28;5105291;28;20468;-63
2021/05/20 09:40:13;;;;;;;9.57;2.33;;;;;;;11.78;61.89;100121.19;5105247;28;20278;-63
2021/05/20 09:42:39;;;;;;;15.63;2.72;;;;;;;11.92;61.95;100125.28;5105089;28;20028;-63
2021/05/20 09:45:10;;;;;;;12.52;3.05;;;;;;;12.01;61.45;100118.16;5105354;28;20034;-63
2021/05/20 09:47:35;;;;;;;14.80;2.83;;;;;;;11.98;61.46;100118.19;5104870;28;20028;-64
2021/05/20 09:50:22;;;;;;;6.47;1.75;;;;;;;11.94;61.25;100120.91;5104679;28;20020;-63
2021/05/20 09:52:48;;;;;;;12.27;3.13;;;;;;;11.94;61.45;100118.28;5104815;28;20048;-63
2021/05/20 09:55:24;;;;;;;7.28;2.13;;;;;;;11.96;60.57;100117.41;5105073;28;20027;-64
2021/05/20 09:57:50;;;;;;;15.93;3.53;;;;;;;12.03;59.82;100120.72;5104756;28;20028;-63
2021/05/20 10:00:19;;;;;;;6.28;1.75;;;;;;;12.05;60.19;100113.75;5104219;28;20020;-63
2021/05/20 10:02:46;;;;;;;9.75;2.50;;;;;;;12.18;60.09;100106.59;5104802;28;20055;-63
2021/05/20 10:05:22;;;;;;;7.32;2.20;;;;;;;12.37;59.54;100120.09;5104668;28;20016;-64
2021/05/20 10:07:48;;;;;;;8.10;1.92;;;;;;;12.53;58.99;100111.97;5103402;28;20023;-63
2021/05/20 10:10:15;;;;;;;9.23;1.88;;;;;;;12.75;58.66;100108.88;5120402;28;20020;-63
2021/05/20 10:12:44;;;;;;;6.05;1.90;;;;;;;12.97;57.68;100116.22;5104636;28;20028;-64
2021/05/20 10:15:16;;;;;;;6.32;2.28;;;;;;;13.06;57.51;100118.63;5104668;28;20020;-64
2021/05/20 10:17:43;;;;;;;10.15;2.47;;;;;;;13.14;57.92;100124.50;5104667;28;20051;-64
2021/05/20 10:20:10;;;;;;;9.05;2.50;;;;;;;13.26;57.39;100122.47;5102455;28;20507;-63
2021/05/20 10:22:36;;;;;;;8.70;2.00;;;;;;;13.25;56.72;100115.56;5104721;28;20080;-64
2021/05/20 10:25:03;;;;;;;9.10;2.90;;;;;;;13.10;56.91;100116.78;5104498;28;20028;-64
2021/05/20 10:27:29;;;;;;;10.40;2.40;;;;;;;12.95;57.15;100123.22;5104198;28;20024;-63
2021/05/20 10:29:58;;;;;;;9.02;2.25;;;;;;;12.94;57.99;100122.34;5104008;28;20115;-64
2021/05/20 10:32:23;;;;;;;8.57;1.90;;;;;;;13.20;57.94;100128.69;5104255;28;20024;-65
2021/05/20 10:35:04;;;;;;;9.45;1.80;;;;;;;13.50;56.30;100128.88;5104043;28;20028;-63
2021/05/20 10:37:38;;;;;;;6.68;1.80;;;;;;;13.30;55.83;100121.53;5104247;28;20024;-64
2021/05/20 10:40:06;;;;;;;7.78;2.00;;;;;;;13.21;56.56;100125.19;5104253;28;20024;-64
2021/05/20 10:42:37;;;;;;;7.88;2.58;;;;;;;13.26;56.43;100119.88;5104035;28;20024;-64
2021/05/20 10:45:22;;;;;;;7.45;1.85;;;;;;;13.21;56.23;100117.38;5103945;28;20096;-64
2021/05/20 10:48:03;;;;;;;5.43;2.10;;;;;;;13.16;56.91;100126.22;5103695;28;20028;-64
2021/05/20 10:50:50;;;;;;;8.48;2.50;;;;;;;13.17;57.12;100120.97;5103438;28;20558;-65
2021/05/20 10:53:37;;;;;;;11.68;2.30;;;;;;;13.13;56.85;100116.72;5103627;28;20079;-62
2021/05/20 10:56:08;;;;;;;10.98;2.83;;;;;;;13.05;57.33;100121.25;5103579;28;20059;-64
2021/05/20 10:58:36;;;;;;;11.68;2.67;;;;;;;12.94;57.84;100118.91;5103670;28;20075;-64
2021/05/20 11:01:20;;;;;;;10.85;2.30;;;;;;;12.92;58.04;100113.72;5103784;28;20024;-64
2021/05/20 11:03:56;;;;;;;11.57;2.45;;;;;;;12.87;58.13;100113.84;5103635;28;20039;-64
2021/05/20 11:06:23;;;;;;;11.43;2.58;;;;;;;12.83;58.76;100117.38;5103564;28;20012;-64
2021/05/20 11:08:48;;;;;;;10.75;2.38;;;;;;;12.81;58.70;100123.53;5103760;28;20054;-66
2021/05/20 11:11:20;;;;;;;9.15;2.17;;;;;;;12.75;59.17;100109.75;5103409;28;20361;-65
2021/05/20 11:13:45;;;;;;;;;;;;;;;12.71;59.14;100113.31;5103685;28;20084;-65
2021/05/20 11:16:16;;;;;;;9.02;2.97;;;;;;;12.64;59.33;100116.94;5102321;28;19919;-65
2021/05/20 11:18:42;;;;;;;9.88;2.65;;;;;;;12.66;59.38;100117.75;5103569;28;20138;-64
2021/05/20 11:21:08;;;;;;;8.90;2.28;;;;;;;12.60;59.48;100110.09;5103334;28;20028;-65
2021/05/20 11:23:36;;;;;;;8.80;1.67;;;;;;;12.71;59.28;100107.25;5103423;28;20031;-66
2021/05/20 11:26:10;;;;;;;12.68;2.90;;;;;;;12.75;59.07;100108.88;5103417;28;20016;-64
2021/05/20 11:28:43;;;;;;;10.57;2.90;;;;;;;12.81;58.73;100105.28;5103195;28;20031;-64
2021/05/20 11:31:09;;;;;;;7.25;2.17;;;;;;;13.01;58.59;100103.09;5103311;28;20043;-64